Terminal Aerodrome Forecast
Issued by NWS

Home | Current Version | Previous Version | Text Only | Print | Product List | Glossary On
Versions: 1 2 3 4 5 6 7 8 9 10 11 12 13 14
000
FTUS43 KLSX 291133
TAFSUS
TAF
KSUS 291133Z 2912/3012 VRB03KT 6SM BR SKC
      TEMPO 2912/2913 5SM BR
     FM291500 09007KT P6SM SCT040
     FM292100 09007KT P6SM VCTS SCT040CB SCT250
     FM300100 VRB03KT P6SM SCT250
     FM300700 VRB03KT 5SM BR SCT250=

USA.gov is the U.S. government's official web portal to all federal, state and local government web resources and services.